Terminal Aerodrome Forecast
Issued by NWS

Home | Current Version | Previous Version | Graphics & Text | Print | Product List | Glossary On
Versions: 1 2 3 4 5 6 7 8 9 10 11 12 13 14 15 16 17 18 19 20 21 22 23 24 25 26 27 28 29 30 31 32 33 34 35 36 37 38 39 40 41 42 43 44 45 46 47 48 49 50
620
FTUS43 KGRB 111300 AAA
TAFRHI
TAF AMD
KRHI 111300Z 1113/1212 16006KT 4SM -SHSN BKN015 OVC025
      TEMPO 1113/1115 2SM -FZDZSN BR OVC007
     FM111700 26006KT 3SM -SHSN BKN015 OVC025
     FM111900 33010G17KT P6SM -SHSN OVC025
     FM120000 34013G23KT P6SM -SHSN BKN035
      TEMPO 1200/1203 3SM -SHSN BKN020=

USA.gov is the U.S. government's official web portal to all federal, state and local government web resources and services.